Het weer levert geen direct gevaar op.    Er zijn geen waarschuwingen afgegeven.

Onweer radar more information blitzortung!


Regen radar more information rain snow radar


Meteo Sauwerd

Weerstation Alkmaar Centrum

Weerstation Luyksgestel

Website Noardburgum

Weerstation Noordbergum



METAR rapporten vliegvelden

   
EHLW - Leeuwarden Rnlaf, Netherlands
Afstand tot: W 17 km
Gewijzigd: 18-10-2018 14:55
Bewolking  
Bewolking  
   Wind: NNO 20 km/h
Wind: NNO 20 km/h
Temperatuur: 15°C
Dauwpunt: 9°C
Vochtigheid: 68%
Barometer: 1025 hPa
Bewolking: Bewolking
Zicht: meer dan 10 km
Bewolking: Gedeeltelijk bewolkt 2800 ft,
Grotendeels bewolkt 3300 ft,
Bewolking 3800 ft
EHLW 181255Z AUTO 03011KT 350V070 9999 SCT028 BKN033 OVC038 15/09 Q1025 BLU
EHMA - Awg-1 Sea, Netherlands
Afstand tot: N 31 km
Gewijzigd: 18-10-2018 14:55
Grotendeels bewolkt  
Grotendeels bewolkt  
   Wind: NO 20 km/h
Wind: NO 20 km/h
Temperatuur: 15°C
Dauwpunt: 9°C
Vochtigheid: 68%
Barometer: 1026 hPa
Bewolking: Grotendeels bewolkt
Zicht: meer dan 10 km
Bewolking: Licht bewolkt 2000 ft,
Gedeeltelijk bewolkt 3000 ft,
Grotendeels bewolkt 3500 ft
EHMA 181255Z AUTO 04011KT 9999 FEW020 SCT030 BKN035 15/09 Q1026 W///H///
EHGG - Groningen/Eelde, Netherlands
Afstand tot: OZO 40 km
Gewijzigd: 18-10-2018 14:55
Grotendeels bewolkt  
Grotendeels bewolkt  
   Wind: NNO 13 km/h
Wind: NNO 13 km/h
Temperatuur: 15°C
Dauwpunt: 8°C
Vochtigheid: 63%
Barometer: 1025 hPa
Bewolking: Grotendeels bewolkt
Zicht: meer dan 10 km
Bewolking: Grotendeels bewolkt 3600 ft
EHGG 181255Z AUTO 03007KT 350V060 9999 BKN036 15/08 Q1025 NOSIG
EHVL - Vlieland Island, Netherlands
Afstand tot: W 72 km
Gewijzigd: 18-10-2018 15:09
Bewolking  
Bewolking  
   Wind: NNO 24 km/h
Wind: NNO 24 km/h
Temperatuur: 15°C
Dauwpunt: 9°C
Vochtigheid: 68%
Barometer: 1026 hPa
Bewolking: Bewolking
Zicht: meer dan 10 km
Bewolking: Grotendeels bewolkt 2000 ft,
Grotendeels bewolkt 2500 ft,
Bewolking 2800 ft
EHVL 181309Z AUTO 03013KT 9999 BKN020 BKN025 OVC028 15/09 Q1026 WHT
EHMG - L9-Ff-1 Sea, Netherlands
Afstand tot: WNW 81 km
Gewijzigd: 18-10-2018 14:55
Licht bewolkt  
Licht bewolkt  
   Wind: NNO 24 km/h
Wind: NNO 24 km/h
Temperatuur: 14°C
Dauwpunt: 10°C
Vochtigheid: 77%
Barometer: 1026 hPa
Bewolking: Licht bewolkt
Zicht: meer dan 10 km
Bewolking: Licht bewolkt 2000 ft
EHMG 181255Z AUTO 03013KT 9999 FEW020 14/10 Q1026 W///H///
EHKD - De Kooy (navy), Netherlands
Afstand tot: WZW 89 km
Gewijzigd: 18-10-2018 14:55
Bewolking  
Bewolking  
   Wind: NO 17 km/h
Wind: NO 17 km/h
Temperatuur: 16°C
Dauwpunt: 8°C
Vochtigheid: 59%
Barometer: 1025 hPa
Bewolking: Bewolking
Zicht: meer dan 10 km
Bewolking: Bewolking 28000 ft
EHKD 181255Z AUTO 04009KT 350V070 9999 OVC280 16/08 Q1025 BLU 03008KT 9999 FEW020 SCT030

Script ontwikkeld door  Saratoga-weather.org Aangepast voor de template door  Weerstation Leuven

U vindt ons ook hier:

Het Weer Aktueel

UK Metoffice

European Weather Network

Weather Underground

AWEKAS

Citizen Weather Observer Program (CWOP)

HAMweather, WeatherForYou, PWS Weather

Apparatuur in gebruik:

Weerstation
Davis Vantage pro 2

Weerprogramma
Meteobridge

Weercomputer
TP-Link TL-WR703N

Webleverancier
Versio

Davis Vantage pro 2

Meteobridge

TP-Link TL-WR703N

Versio